Time;durP1;ratioP1;P1;durP2;ratioP2;P2;SDS_P1;SDS_P2;PMS_P1;PMS_P2;Temp;Humidity;BMP_temperature;BMP_pressure;BME280_temperature;BME280_humidity;BME280_pressure;Samples;Min_cycle;Max_cycle;Signal;HPM_P1;HPM_P2
2021/04/29 00:02:12;;;;;;;7.87;5.13;;;16.00;1.00;;;;;;4901860;29;21001;-78
2021/04/29 00:04:39;;;;;;;6.47;5.97;;;16.10;1.00;;;;;;4902286;29;20497;-75
2021/04/29 00:07:07;;;;;;;7.30;5.90;;;16.10;1.00;;;;;;4907008;29;20526;-77
2021/04/29 00:09:36;;;;;;;6.77;6.17;;;15.90;1.00;;;;;;4902660;29;21762;-77
2021/04/29 00:12:04;;;;;;;6.57;5.53;;;15.90;1.00;;;;;;4897342;29;20469;-78
2021/04/29 00:14:32;;;;;;;7.53;5.47;;;15.80;38.50;;;;;;4898771;29;20476;-76
2021/04/29 00:16:59;;;;;;;6.37;5.73;;;15.70;99.90;;;;;;4905193;29;20465;-78
2021/04/29 00:19:28;;;;;;;7.43;5.40;;;15.60;99.90;;;;;;4904197;29;20481;-78
2021/04/29 00:21:56;;;;;;;6.57;5.50;;;15.60;99.90;;;;;;4906745;29;20464;-78
2021/04/29 00:24:24;;;;;;;6.47;5.37;;;15.60;99.90;;;;;;4904149;29;20457;-78
2021/04/29 00:26:51;;;;;;;5.97;5.40;;;15.60;99.90;;;;;;4905645;29;20464;-76
2021/04/29 00:29:18;;;;;;;6.63;6.03;;;15.60;99.90;;;;;;4902511;29;20490;-74
2021/04/29 00:31:46;;;;;;;7.23;6.37;;;15.60;99.90;;;;;;4908931;29;20496;-76
2021/04/29 00:34:13;;;;;;;6.63;6.03;;;15.40;99.90;;;;;;4902211;29;20560;-76
2021/04/29 00:36:41;;;;;;;7.23;6.43;;;15.50;1.00;;;;;;4904910;29;20520;-78
2021/04/29 00:39:08;;;;;;;7.87;4.67;;;15.40;1.00;;;;;;4901917;29;20500;-77
2021/04/29 00:41:35;;;;;;;5.60;5.00;;;15.40;1.00;;;;;;4902334;29;20497;-76
2021/04/29 00:44:03;;;;;;;5.30;4.90;;;15.50;99.90;;;;;;4897897;29;20464;-79
2021/04/29 00:46:31;;;;;;;5.03;4.63;;;15.50;1.00;;;;;;4898964;29;21320;-77
2021/04/29 00:48:58;;;;;;;5.67;5.07;;;15.40;1.00;;;;;;4917828;29;20580;-77
2021/04/29 00:51:26;;;;;;;4.80;4.40;;;15.50;1.00;;;;;;4905547;29;20556;-76
2021/04/29 00:53:54;;;;;;;5.10;4.60;;;15.50;1.00;;;;;;4915508;29;20573;-78
2021/04/29 00:56:23;;;;;;;5.60;5.10;;;15.50;1.00;;;;;;4906357;29;20461;-78
2021/04/29 00:58:50;;;;;;;4.50;4.10;;;15.40;1.00;;;;;;4903356;29;21098;-77
2021/04/29 01:01:18;;;;;;;5.90;4.80;;;15.40;1.00;;;;;;4902359;29;20485;-80
2021/04/29 01:03:52;;;;;;;4.50;4.10;;;15.40;1.00;;;;;;4903786;29;20506;-79
2021/04/29 01:06:23;;;;;;;4.23;3.93;;;15.40;1.00;;;;;;4902025;29;21126;-78
2021/04/29 01:08:58;;;;;;;5.30;4.23;;;15.30;1.00;;;;;;4897349;29;20494;-78
2021/04/29 01:11:28;;;;;;;4.53;4.13;;;15.30;1.00;;;;;;4900570;29;20479;-78
2021/04/29 01:13:57;;;;;;;4.47;4.10;;;15.30;1.00;;;;;;4897033;29;20548;-78
2021/04/29 01:16:26;;;;;;;4.60;4.20;;;15.30;1.00;;;;;;4901384;29;20458;-78
2021/04/29 01:18:55;;;;;;;3.80;3.50;;;15.30;1.00;;;;;;4905969;29;20481;-79
2021/04/29 01:21:24;;;;;;;4.23;3.83;;;15.30;99.90;;;;;;4903661;29;21085;-77
2021/04/29 01:23:59;;;;;;;3.60;3.37;;;15.30;99.90;;;;;;4895955;29;21157;-79
2021/04/29 01:26:46;;;;;;;2.80;2.60;;;15.30;99.90;;;;;;4912870;29;20994;-77
2021/04/29 01:29:16;;;;;;;3.27;3.03;;;15.20;99.90;;;;;;4898641;29;20496;-79
2021/04/29 01:31:45;;;;;;;2.73;2.53;;;15.20;99.90;;;;;;4904973;29;21045;-77
2021/04/29 01:34:15;;;;;;;2.63;2.43;;;15.20;99.90;;;;;;4905916;29;20465;-76
2021/04/29 01:36:43;;;;;;;2.77;2.47;;;15.20;99.90;;;;;;4901088;29;20602;-76
2021/04/29 01:39:14;;;;;;;2.23;1.70;;;15.50;58.70;;;;;;4906319;29;20554;-79
2021/04/29 01:41:45;;;;;;;1.70;1.60;;;15.40;1.00;;;;;;4894975;29;20517;-78
2021/04/29 01:44:13;;;;;;;1.67;1.57;;;15.50;1.00;;;;;;4898678;29;20459;-78
2021/04/29 01:46:41;;;;;;;1.50;1.40;;;15.40;1.00;;;;;;4905595;29;20470;-79
2021/04/29 01:49:10;;;;;;;1.43;1.03;;;15.30;1.00;;;;;;4903759;29;20488;-78
2021/04/29 01:51:39;;;;;;;2.03;1.20;;;15.30;1.00;;;;;;4903504;29;21013;-79
2021/04/29 01:54:12;;;;;;;1.60;1.50;;;15.10;1.00;;;;;;4905567;29;20450;-77
2021/04/29 01:56:40;;;;;;;1.30;1.20;;;15.10;37.80;;;;;;4902687;29;20468;-79
2021/04/29 01:59:10;;;;;;;1.30;1.20;;;15.20;9.00;;;;;;4903711;29;20476;-78
2021/04/29 02:01:38;;;;;;;0.97;0.90;;;15.20;1.00;;;;;;4900025;29;20494;-79
2021/04/29 02:04:07;;;;;;;0.90;0.90;;;15.30;1.00;;;;;;4900189;29;20556;-79
2021/04/29 02:06:34;;;;;;;0.80;0.80;;;15.30;1.00;;;;;;4902269;29;20497;-79
2021/04/29 02:09:02;;;;;;;0.80;0.70;;;15.20;1.00;;;;;;4900869;29;20493;-78
2021/04/29 02:11:33;;;;;;;0.60;0.60;;;15.10;1.00;;;;;;4900030;29;20975;-76
2021/04/29 02:14:03;;;;;;;0.70;0.70;;;15.20;1.00;;;;;;4897298;29;20562;-79
2021/04/29 02:16:36;;;;;;;0.60;0.60;;;15.10;1.00;;;;;;4912017;29;20469;-78
2021/04/29 02:19:04;;;;;;;0.63;0.63;;;14.70;1.00;;;;;;4896308;29;20609;-78
2021/04/29 02:21:33;;;;;;;0.60;0.53;;;15.10;1.00;;;;;;4905050;29;20492;-78
2021/04/29 02:24:00;;;;;;;1.03;1.03;;;15.10;1.00;;;;;;4903237;29;20473;-79
2021/04/29 02:26:28;;;;;;;0.90;0.80;;;14.80;1.00;;;;;;4903966;29;20517;-79
2021/04/29 02:28:56;;;;;;;0.60;0.60;;;14.80;1.00;;;;;;4915060;29;21176;-78
2021/04/29 02:31:24;;;;;;;0.70;0.70;;;14.80;1.00;;;;;;4901327;29;20487;-77
2021/04/29 02:33:52;;;;;;;1.10;0.70;;;14.70;1.00;;;;;;4905929;29;20562;-78
2021/04/29 02:36:21;;;;;;;0.50;0.50;;;14.80;1.00;;;;;;4902813;29;20472;-78
2021/04/29 02:38:49;;;;;;;0.67;0.67;;;14.90;1.00;;;;;;4904167;29;20489;-79
2021/04/29 02:41:17;;;;;;;0.80;0.80;;;14.90;1.00;;;;;;4902846;29;20602;-77
2021/04/29 02:43:47;;;;;;;0.60;0.60;;;14.90;1.00;;;;;;4908118;29;21118;-78
2021/04/29 02:46:15;;;;;;;3.03;0.50;;;14.80;1.00;;;;;;4899060;29;21011;-79
2021/04/29 02:48:42;;;;;;;1.23;0.70;;;14.70;1.00;;;;;;4902214;29;20507;-77
2021/04/29 02:51:10;;;;;;;0.60;0.60;;;14.60;1.00;;;;;;4902736;29;20517;-79
2021/04/29 02:53:40;;;;;;;0.60;0.60;;;14.70;1.00;;;;;;4903910;29;20468;-79
2021/04/29 02:56:08;;;;;;;1.33;0.50;;;15.00;1.00;;;;;;4902293;29;20475;-79
2021/04/29 02:58:42;;;;;;;0.70;0.60;;;15.20;1.00;;;;;;4902790;29;20492;-75
2021/04/29 03:01:11;;;;;;;3.33;1.03;;;15.30;1.00;;;;;;4902997;29;20484;-79
2021/04/29 03:03:39;;;;;;;0.50;0.50;;;15.40;1.00;;;;;;4901370;29;20954;-78
2021/04/29 03:06:06;;;;;;;0.60;0.60;;;15.50;1.00;;;;;;4905562;29;20551;-79
2021/04/29 03:08:34;;;;;;;0.70;0.50;;;15.60;1.00;;;;;;4905355;29;20469;-79
2021/04/29 03:11:03;;;;;;;0.40;0.40;;;15.60;1.00;;;;;;4905669;29;20459;-80
2021/04/29 03:13:31;;;;;;;0.50;0.50;;;15.70;1.00;;;;;;4897812;29;20466;-78
2021/04/29 03:15:59;;;;;;;0.50;0.50;;;15.70;1.00;;;;;;4913457;29;20470;-79
2021/04/29 03:18:27;;;;;;;0.50;0.40;;;15.70;1.00;;;;;;4905563;29;20575;-78
2021/04/29 03:20:54;;;;;;;0.40;0.40;;;15.80;1.00;;;;;;4897892;29;20516;-78
2021/04/29 03:23:21;;;;;;;0.80;0.43;;;15.80;99.90;;;;;;4894664;29;20466;-78
2021/04/29 03:25:49;;;;;;;0.50;0.50;;;15.80;99.90;;;;;;4897461;29;20465;-79
2021/04/29 03:28:17;;;;;;;0.57;0.57;;;15.80;99.90;;;;;;4895046;29;20209;-78
2021/04/29 03:30:44;;;;;;;0.50;0.50;;;15.80;99.90;;;;;;4900239;29;20955;-77
2021/04/29 03:33:11;;;;;;;0.47;0.47;;;15.80;99.90;;;;;;4901843;29;20480;-79
2021/04/29 03:35:39;;;;;;;0.87;0.40;;;15.70;99.90;;;;;;4914193;29;20458;-78
2021/04/29 03:38:07;;;;;;;0.50;0.50;;;15.70;99.90;;;;;;4901909;29;20463;-77
2021/04/29 03:40:35;;;;;;;0.60;0.60;;;15.70;99.90;;;;;;4900923;29;20549;-77
2021/04/29 03:43:04;;;;;;;0.50;0.50;;;15.70;99.90;;;;;;4895853;29;20469;-77
2021/04/29 03:45:32;;;;;;;0.60;0.60;;;16.00;99.90;;;;;;4895183;29;20985;-77
2021/04/29 03:47:59;;;;;;;0.50;0.50;;;15.70;99.90;;;;;;4892652;29;20484;-80
2021/04/29 03:50:27;;;;;;;0.67;0.50;;;15.70;99.90;;;;;;4912006;29;20480;-78
2021/04/29 03:52:54;;;;;;;0.70;0.60;;;15.60;99.90;;;;;;4901355;29;20528;-77
2021/04/29 03:55:21;;;;;;;0.87;0.87;;;15.50;99.90;;;;;;4903491;29;20465;-79
2021/04/29 03:57:48;;;;;;;1.53;0.80;;;15.50;99.90;;;;;;4902371;29;20466;-77
2021/04/29 04:00:17;;;;;;;0.88;0.70;;;15.50;99.90;;;;;;4900131;29;20460;-77
2021/04/29 04:02:44;;;;;;;0.53;0.50;;;15.60;99.90;;;;;;4903033;29;21052;-78
2021/04/29 04:05:12;;;;;;;0.90;0.73;;;15.60;99.90;;;;;;4904963;29;20539;-79
2021/04/29 04:07:39;;;;;;;0.90;0.60;;;15.50;99.90;;;;;;4902279;29;20469;-78
2021/04/29 04:10:08;;;;;;;0.57;0.57;;;15.50;99.90;;;;;;4915648;29;20521;-80
2021/04/29 04:12:36;;;;;;;0.80;0.60;;;15.60;99.90;;;;;;4903371;29;20469;-78
2021/04/29 04:15:04;;;;;;;2.30;0.80;;;15.50;99.90;;;;;;4896685;29;20478;-77
2021/04/29 04:17:32;;;;;;;2.27;0.73;;;15.40;99.90;;;;;;4895974;29;20466;-77
2021/04/29 04:20:18;;;;;;;0.63;0.63;;;15.30;99.90;;;;;;4900725;29;20478;-76
2021/04/29 04:22:45;;;;;;;1.47;0.80;;;15.40;99.90;;;;;;4899156;29;20822;-80
2021/04/29 04:25:13;;;;;;;0.90;0.90;;;15.50;99.90;;;;;;4903791;29;21389;-77
2021/04/29 04:27:40;;;;;;;0.70;0.70;;;15.50;99.90;;;;;;4901132;29;21398;-77
2021/04/29 04:30:09;;;;;;;1.20;0.90;;;15.40;99.90;;;;;;4900467;29;20501;-79
2021/04/29 04:32:37;;;;;;;0.77;0.77;;;15.40;99.90;;;;;;4903022;29;20653;-79
2021/04/29 04:35:05;;;;;;;1.67;0.90;;;15.40;99.90;;;;;;4904614;29;20552;-78
2021/04/29 04:37:32;;;;;;;0.77;0.70;;;15.40;99.90;;;;;;4901619;29;20490;-78
2021/04/29 04:40:03;;;;;;;1.10;1.00;;;15.30;99.90;;;;;;4901952;29;20560;-79
2021/04/29 04:42:30;;;;;;;1.00;0.90;;;15.30;99.90;;;;;;4902632;29;21114;-77
2021/04/29 04:44:57;;;;;;;2.50;1.10;;;15.20;99.90;;;;;;4911217;29;20469;-80
2021/04/29 04:47:26;;;;;;;1.10;1.00;;;15.30;99.90;;;;;;4897998;29;20459;-76
2021/04/29 04:49:55;;;;;;;1.50;1.07;;;15.10;99.90;;;;;;4901375;29;20494;-79
2021/04/29 04:52:22;;;;;;;2.33;1.43;;;15.20;99.90;;;;;;4901380;29;20461;-78
2021/04/29 04:54:50;;;;;;;1.10;1.00;;;15.20;99.90;;;;;;4899713;29;20468;-78
2021/04/29 04:57:18;;;;;;;1.97;1.00;;;15.00;99.90;;;;;;4903300;29;20515;-78
2021/04/29 04:59:45;;;;;;;1.97;1.30;;;15.00;99.90;;;;;;4901024;29;20543;-78
2021/04/29 05:02:12;;;;;;;1.40;1.30;;;15.00;99.90;;;;;;4903883;29;20516;-77
2021/04/29 05:04:40;;;;;;;1.53;1.20;;;14.90;99.90;;;;;;4903819;29;20470;-79
2021/04/29 05:07:09;;;;;;;1.40;1.33;;;14.80;99.90;;;;;;4906067;29;21166;-81
2021/04/29 05:09:37;;;;;;;1.63;1.53;;;14.90;99.90;;;;;;4905563;29;20489;-78
2021/04/29 05:12:04;;;;;;;1.80;1.30;;;14.80;99.90;;;;;;4900276;29;20470;-79
2021/04/29 05:14:31;;;;;;;1.50;1.40;;;14.80;99.90;;;;;;4901825;29;20207;-77
2021/04/29 05:16:58;;;;;;;6.40;2.73;;;14.70;99.90;;;;;;4897279;29;20464;-76
2021/04/29 05:19:27;;;;;;;1.53;1.40;;;14.70;99.90;;;;;;4902550;29;20577;-78
2021/04/29 05:21:54;;;;;;;1.37;1.20;;;14.50;99.90;;;;;;4905063;29;20982;-77
2021/04/29 05:24:22;;;;;;;1.73;1.27;;;14.60;99.90;;;;;;4903889;29;20489;-77
2021/04/29 05:26:49;;;;;;;1.50;1.40;;;14.60;99.90;;;;;;4904158;29;20472;-77
2021/04/29 05:29:17;;;;;;;2.53;1.70;;;14.60;99.90;;;;;;4901309;29;20515;-80
2021/04/29 05:31:44;;;;;;;1.93;1.60;;;14.60;99.90;;;;;;4906671;29;20462;-81
2021/04/29 05:34:12;;;;;;;4.47;1.90;;;14.50;99.90;;;;;;4900152;29;20477;-80
2021/04/29 05:36:39;;;;;;;2.17;1.30;;;14.50;99.90;;;;;;4905773;29;20466;-81
2021/04/29 05:39:06;;;;;;;3.43;1.80;;;14.50;99.90;;;;;;4901605;29;20480;-81
2021/04/29 05:41:34;;;;;;;2.50;1.70;;;14.40;99.90;;;;;;4901327;29;20470;-82
2021/04/29 05:44:01;;;;;;;4.50;1.93;;;14.30;99.90;;;;;;4897496;29;20204;-78
2021/04/29 05:46:28;;;;;;;2.63;1.50;;;14.10;99.90;;;;;;4895691;29;20509;-78
2021/04/29 05:48:56;;;;;;;1.77;1.67;;;14.20;99.90;;;;;;4894068;29;20506;-81
2021/04/29 05:51:23;;;;;;;4.50;1.57;;;14.20;99.90;;;;;;4891711;29;20460;-77
2021/04/29 05:53:50;;;;;;;2.83;1.70;;;14.20;99.90;;;;;;4888274;29;20473;-80
2021/04/29 05:56:17;;;;;;;1.50;1.40;;;14.10;99.90;;;;;;4893692;29;20475;-80
2021/04/29 05:58:45;;;;;;;2.10;1.37;;;14.30;99.90;;;;;;4890178;29;20558;-79
2021/04/29 06:01:12;;;;;;;1.83;1.50;;;14.30;99.90;;;;;;4895672;29;20546;-79
2021/04/29 06:03:39;;;;;;;1.83;1.73;;;14.40;99.90;;;;;;4889788;29;20489;-78
2021/04/29 06:06:07;;;;;;;1.77;1.60;;;14.30;99.90;;;;;;4896004;29;20473;-79
2021/04/29 06:08:34;;;;;;;1.83;1.70;;;14.40;99.90;;;;;;4888979;29;20472;-79
2021/04/29 06:11:01;;;;;;;2.20;1.40;;;14.40;99.90;;;;;;4891883;29;20467;-81
2021/04/29 06:13:30;;;;;;;1.60;1.50;;;14.40;99.90;;;;;;4894365;29;20460;-79
2021/04/29 06:15:58;;;;;;;2.20;1.40;;;14.20;99.90;;;;;;4890600;29;20473;-78
2021/04/29 06:18:25;;;;;;;1.63;1.53;;;14.10;99.90;;;;;;4889048;29;20500;-79
2021/04/29 06:20:52;;;;;;;3.00;2.10;;;14.30;99.90;;;;;;4887157;29;22349;-80
2021/04/29 06:23:19;;;;;;;2.00;1.80;;;14.40;99.90;;;;;;4884769;29;20618;-79
2021/04/29 06:25:46;;;;;;;2.00;1.80;;;14.40;99.90;;;;;;4882611;29;20476;-77
2021/04/29 06:28:14;;;;;;;2.63;1.80;;;14.50;99.90;;;;;;4893383;29;20559;-77
2021/04/29 06:30:41;;;;;;;2.30;1.93;;;14.60;99.90;;;;;;4895058;29;20955;-76
2021/04/29 06:33:09;;;;;;;2.27;2.00;;;14.70;99.90;;;;;;4902507;29;20824;-78
2021/04/29 06:35:37;;;;;;;2.33;1.67;;;14.80;99.90;;;;;;4901508;29;20468;-77
2021/04/29 06:38:04;;;;;;;3.40;2.03;;;15.00;99.90;;;;;;4896735;29;20825;-76
2021/04/29 06:40:31;;;;;;;2.40;2.20;;;15.10;99.90;;;;;;4898374;29;20466;-77
2021/04/29 06:42:58;;;;;;;4.67;2.03;;;15.30;99.90;;;;;;4902297;29;20469;-78
2021/04/29 06:45:25;;;;;;;2.50;2.30;;;15.50;99.90;;;;;;4901950;29;20850;-77
2021/04/29 06:47:54;;;;;;;2.33;2.13;;;15.80;99.90;;;;;;4900245;29;20982;-77
2021/04/29 06:50:22;;;;;;;3.57;2.30;;;16.00;99.90;;;;;;4900066;29;21052;-78
2021/04/29 06:52:49;;;;;;;2.40;1.80;;;16.00;99.90;;;;;;4896779;29;20917;-77
2021/04/29 06:55:16;;;;;;;3.57;2.10;;;16.30;99.90;;;;;;4896551;29;20478;-77
2021/04/29 06:57:44;;;;;;;3.20;1.80;;;16.60;99.90;;;;;;4900998;29;20470;-75
2021/04/29 07:00:12;;;;;;;4.20;2.60;;;16.80;99.90;;;;;;4897812;29;20706;-75
2021/04/29 07:02:39;;;;;;;2.53;2.33;;;17.00;99.90;;;;;;4899203;29;20543;-75
2021/04/29 07:05:08;;;;;;;2.33;2.13;;;17.10;99.90;;;;;;4900227;29;20470;-75
2021/04/29 07:07:36;;;;;;;3.77;2.60;;;17.10;99.90;;;;;;4902374;29;20823;-75
2021/04/29 07:10:04;;;;;;;3.37;3.17;;;17.10;99.90;;;;;;4901354;29;20497;-75
2021/04/29 07:12:31;;;;;;;3.30;3.00;;;17.10;99.90;;;;;;4898683;29;20461;-75
2021/04/29 07:14:59;;;;;;;5.00;3.57;;;17.00;99.90;;;;;;4900767;29;20480;-75
2021/04/29 07:17:26;;;;;;;3.83;3.37;;;16.90;99.90;;;;;;4897251;29;20924;-75
2021/04/29 07:19:58;;;;;;;3.23;2.80;;;16.90;99.90;;;;;;4902260;29;20499;-75
2021/04/29 07:22:25;;;;;;;3.37;3.07;;;16.90;99.90;;;;;;4897308;29;20497;-76
2021/04/29 07:24:53;;;;;;;3.63;3.33;;;16.80;99.90;;;;;;4898227;29;20781;-74
2021/04/29 07:27:20;;;;;;;5.37;4.30;;;16.60;99.90;;;;;;4896302;29;20490;-74
2021/04/29 07:29:48;;;;;;;5.77;2.63;;;16.20;99.90;;;;;;4898086;29;21002;-75
2021/04/29 07:32:15;;;;;;;4.77;4.20;;;16.10;99.90;;;;;;4893207;29;20463;-76
2021/04/29 07:34:42;;;;;;;7.17;4.20;;;16.00;99.90;;;;;;4896674;29;20469;-75
2021/04/29 07:37:10;;;;;;;5.20;3.57;;;16.00;99.90;;;;;;4895186;29;20454;-77
2021/04/29 07:39:37;;;;;;;5.20;4.70;;;16.00;99.90;;;;;;4894067;29;20509;-77
2021/04/29 07:42:05;;;;;;;3.60;3.13;;;16.00;99.90;;;;;;4897033;29;20474;-78
2021/04/29 07:44:33;;;;;;;4.30;3.70;;;16.20;99.90;;;;;;4901794;29;20469;-77
2021/04/29 07:47:00;;;;;;;5.30;4.63;;;16.40;99.90;;;;;;4897148;29;20510;-77
2021/04/29 07:49:28;;;;;;;5.00;3.93;;;16.40;99.90;;;;;;4899041;29;20493;-77
2021/04/29 07:51:56;;;;;;;4.13;3.83;;;16.60;99.90;;;;;;4894953;29;20463;-78
2021/04/29 07:54:23;;;;;;;3.83;3.53;;;16.70;99.90;;;;;;4895039;29;20797;-78
2021/04/29 07:56:50;;;;;;;4.60;4.20;;;16.60;99.90;;;;;;4898400;29;21160;-77
2021/04/29 07:59:18;;;;;;;6.30;4.70;;;16.70;99.90;;;;;;4901440;29;20494;-79
2021/04/29 08:01:45;;;;;;;5.63;4.93;;;16.70;99.90;;;;;;4898920;29;20564;-77
2021/04/29 08:04:12;;;;;;;4.40;4.00;;;16.80;99.90;;;;;;4911702;29;20463;-77
2021/04/29 08:06:40;;;;;;;4.73;4.33;;;16.70;99.90;;;;;;4894340;29;21049;-77
2021/04/29 08:09:07;;;;;;;6.07;5.47;;;16.70;99.90;;;;;;4899163;29;21052;-76
2021/04/29 08:11:35;;;;;;;5.50;5.00;;;16.80;99.90;;;;;;4896887;29;20462;-78
2021/04/29 08:14:02;;;;;;;5.80;4.73;;;16.50;99.90;;;;;;4895210;29;20458;-77
2021/04/29 08:16:30;;;;;;;7.10;5.83;;;16.50;99.90;;;;;;4897654;29;20462;-75
2021/04/29 08:18:58;;;;;;;6.33;5.13;;;16.70;99.90;;;;;;4898609;29;20482;-76
2021/04/29 08:21:44;;;;;;;9.90;6.20;;;16.80;99.90;;;;;;4901389;29;20489;-78
2021/04/29 08:24:11;;;;;;;7.67;6.17;;;16.90;99.90;;;;;;4899950;29;20500;-79
2021/04/29 08:26:39;;;;;;;6.80;5.07;;;16.70;99.90;;;;;;4900919;29;20978;-77
2021/04/29 08:29:06;;;;;;;7.03;6.00;;;16.60;99.90;;;;;;4899799;29;21204;-76
2021/04/29 08:31:35;;;;;;;8.38;5.80;;;16.40;99.90;;;;;;4902489;29;20461;-78
2021/04/29 08:34:02;;;;;;;8.93;6.20;;;16.20;99.90;;;;;;4899797;29;20214;-77
2021/04/29 08:36:30;;;;;;;7.63;6.60;;;16.20;99.90;;;;;;4899620;29;20469;-76
2021/04/29 08:39:00;;;;;;;6.53;5.33;;;16.20;99.90;;;;;;4922405;29;20548;-77
2021/04/29 08:41:27;;;;;;;7.07;6.37;;;16.10;99.90;;;;;;4902830;29;20569;-77
2021/04/29 08:43:54;;;;;;;9.03;6.10;;;16.10;99.90;;;;;;4901763;29;20457;-77
2021/04/29 08:46:22;;;;;;;7.43;5.60;;;16.20;99.90;;;;;;4901719;29;20533;-76
2021/04/29 08:48:53;;;;;;;7.57;6.77;;;16.40;99.90;;;;;;4901610;29;20496;-76
2021/04/29 08:51:22;;;;;;;7.30;5.87;;;16.80;99.90;;;;;;4905594;29;20490;-76
2021/04/29 08:53:50;;;;;;;6.33;5.73;;;16.80;99.90;;;;;;4909683;29;20908;-77
2021/04/29 08:56:22;;;;;;;5.53;5.13;;;16.80;99.90;;;;;;4903064;29;20849;-76
2021/04/29 08:58:50;;;;;;;6.57;5.87;;;16.60;99.90;;;;;;4900109;29;20492;-77
2021/04/29 09:01:18;;;;;;;6.27;5.30;;;16.50;99.90;;;;;;4900478;29;21003;-76
2021/04/29 09:03:45;;;;;;;7.10;5.53;;;16.80;99.90;;;;;;4904057;29;20458;-77
2021/04/29 09:06:13;;;;;;;6.50;5.27;;;16.60;99.90;;;;;;4906556;29;20881;-76
2021/04/29 09:08:42;;;;;;;6.60;5.03;;;16.70;99.90;;;;;;4903331;29;20512;-78
2021/04/29 09:11:11;;;;;;;8.07;5.60;;;16.70;99.90;;;;;;4904703;29;20982;-77
2021/04/29 09:13:39;;;;;;;6.77;5.30;;;16.60;99.90;;;;;;4896805;29;20469;-77
2021/04/29 09:16:09;;;;;;;5.10;4.70;;;16.50;99.90;;;;;;4900454;29;20515;-77
2021/04/29 09:18:37;;;;;;;6.27;5.10;;;16.60;99.90;;;;;;4894750;29;20573;-75
2021/04/29 09:21:11;;;;;;;6.30;5.17;;;16.40;99.90;;;;;;4898005;29;20467;-76
2021/04/29 09:23:41;;;;;;;7.10;6.40;;;16.50;99.90;;;;;;4896475;29;20737;-76
2021/04/29 09:26:10;;;;;;;4.67;4.27;;;16.60;99.90;;;;;;4912074;29;20510;-76
2021/04/29 09:28:42;;;;;;;5.67;4.07;;;16.60;99.90;;;;;;4902579;29;20485;-76
2021/04/29 09:31:12;;;;;;;3.67;3.30;;;16.70;99.90;;;;;;4899424;29;21528;-76
2021/04/29 09:33:41;;;;;;;4.80;2.97;;;16.60;99.90;;;;;;4902193;29;21009;-75
2021/04/29 09:36:20;;;;;;;4.50;3.60;;;16.60;99.90;;;;;;4902619;29;20476;-77
2021/04/29 09:38:54;;;;;;;4.00;3.60;;;16.60;99.90;;;;;;4902085;29;22710;-77
2021/04/29 09:41:23;;;;;;;4.13;3.73;;;16.70;99.90;;;;;;4912561;29;20473;-76
2021/04/29 09:43:55;;;;;;;4.77;3.73;;;16.60;99.90;;;;;;4901780;29;20725;-77
2021/04/29 09:46:23;;;;;;;5.17;3.80;;;16.60;99.90;;;;;;4902587;29;20470;-77
2021/04/29 09:48:51;;;;;;;6.90;5.13;;;16.70;99.90;;;;;;4903783;29;20522;-76
2021/04/29 09:51:20;;;;;;;5.10;4.70;;;16.70;99.90;;;;;;4901975;29;20463;-76
2021/04/29 09:53:50;;;;;;;9.40;5.20;;;16.60;99.90;;;;;;4915315;29;20451;-76
2021/04/29 09:56:20;;;;;;;7.30;5.03;;;16.60;99.90;;;;;;4899185;29;21066;-76
2021/04/29 09:58:49;;;;;;;5.67;5.17;;;16.80;99.90;;;;;;4889086;29;21086;-77
2021/04/29 10:01:17;;;;;;;7.07;5.70;;;16.70;99.90;;;;;;4902718;29;20477;-77
2021/04/29 10:03:45;;;;;;;6.13;5.50;;;16.80;99.90;;;;;;4901364;29;20518;-78
2021/04/29 10:06:15;;;;;;;6.13;5.10;;;16.90;99.90;;;;;;4901685;29;20475;-77
2021/04/29 10:08:43;;;;;;;5.90;5.07;;;16.80;99.90;;;;;;4900868;29;20497;-78
2021/04/29 10:11:12;;;;;;;6.43;4.93;;;16.90;99.90;;;;;;4901428;29;20474;-77
2021/04/29 10:13:43;;;;;;;5.57;4.23;;;16.90;99.90;;;;;;4897697;29;20916;-77
2021/04/29 10:16:11;;;;;;;5.40;4.93;;;17.10;99.90;;;;;;4898782;29;20469;-77
2021/04/29 10:18:39;;;;;;;5.50;5.00;;;17.20;99.90;;;;;;4898917;29;20486;-78
2021/04/29 10:21:07;;;;;;;9.00;4.33;;;17.30;99.90;;;;;;4908989;29;20475;-77
2021/04/29 10:23:37;;;;;;;5.90;5.10;;;17.30;99.90;;;;;;4910200;29;20483;-78
2021/04/29 10:26:05;;;;;;;6.97;5.30;;;17.30;99.90;;;;;;4898039;29;20474;-77
2021/04/29 10:28:35;;;;;;;5.20;4.70;;;17.30;99.90;;;;;;4897957;29;20480;-77
2021/04/29 10:31:17;;;;;;;4.93;4.43;;;17.10;99.90;;;;;;4898794;29;20791;-78
2021/04/29 10:33:51;;;;;;;5.70;4.80;;;17.10;99.90;;;;;;4898070;29;20466;-77
2021/04/29 10:36:19;;;;;;;7.07;5.07;;;16.90;99.90;;;;;;4897307;29;20467;-78
2021/04/29 10:38:47;;;;;;;5.23;4.47;;;16.90;99.90;;;;;;4898217;29;20498;-77
2021/04/29 10:41:23;;;;;;;5.87;4.50;;;16.90;99.90;;;;;;4896258;29;20469;-77
2021/04/29 10:43:53;;;;;;;5.10;4.70;;;17.00;99.90;;;;;;4898251;29;20473;-77
2021/04/29 10:46:29;;;;;;;9.97;4.23;;;17.10;99.90;;;;;;4899791;29;20467;-77
2021/04/29 10:49:00;;;;;;;7.50;4.50;;;17.10;99.90;;;;;;4898415;29;21141;-77
2021/04/29 10:51:33;;;;;;;3.80;3.50;;;16.80;99.90;;;;;;4897042;29;20467;-77
2021/04/29 10:54:15;;;;;;;4.30;3.90;;;17.30;99.90;;;;;;4899799;29;20716;-76
2021/04/29 10:56:58;;;;;;;4.40;3.33;;;17.40;99.90;;;;;;4898901;29;20477;-77
2021/04/29 10:59:38;;;;;;;7.10;4.30;;;17.30;99.90;;;;;;4896906;29;20491;-76
2021/04/29 11:02:06;;;;;;;4.50;2.83;;;17.30;99.90;;;;;;4899262;29;20475;-76
2021/04/29 11:04:41;;;;;;;4.50;3.77;;;17.50;99.90;;;;;;4900734;29;20523;-76
2021/04/29 11:07:12;;;;;;;4.17;3.40;;;17.70;99.90;;;;;;4903282;29;20449;-76
2021/04/29 11:09:40;;;;;;;3.23;2.80;;;17.60;99.90;;;;;;4902154;29;20537;-77
2021/04/29 11:12:09;;;;;;;3.50;3.20;;;17.50;99.90;;;;;;4898574;29;20460;-77
2021/04/29 11:14:42;;;;;;;3.43;3.13;;;17.70;99.90;;;;;;4897645;29;20459;-75
2021/04/29 11:17:19;;;;;;;4.20;3.50;;;18.00;99.90;;;;;;4896391;29;20453;-78
2021/04/29 11:19:48;;;;;;;2.87;2.67;;;18.10;99.90;;;;;;4896773;29;20492;-77
2021/04/29 11:22:24;;;;;;;4.30;3.33;;;18.10;99.90;;;;;;4897413;29;20481;-77
2021/04/29 11:24:52;;;;;;;5.40;3.40;;;18.20;99.90;;;;;;4893345;29;20531;-79
2021/04/29 11:27:22;;;;;;;3.40;3.07;;;18.30;99.90;;;;;;4903926;29;20465;-80
2021/04/29 11:29:55;;;;;;;3.70;3.40;;;18.30;99.90;;;;;;4902526;29;20524;-80
2021/04/29 11:32:22;;;;;;;5.13;2.80;;;18.40;99.90;;;;;;4906753;29;20977;-81
2021/04/29 11:34:51;;;;;;;4.60;3.03;;;18.50;99.90;;;;;;4901375;29;20460;-78
2021/04/29 11:37:18;;;;;;;4.97;3.63;;;18.40;94.80;;;;;;4904776;29;20891;-81
2021/04/29 11:39:56;;;;;;;5.13;2.60;;;18.30;97.60;;;;;;4899931;29;20523;-79
2021/04/29 11:42:26;;;;;;;2.67;2.43;;;18.10;99.80;;;;;;4899831;29;20490;-80
2021/04/29 11:45:04;;;;;;;2.70;2.43;;;18.00;98.00;;;;;;4914683;29;21463;-80
2021/04/29 11:47:32;;;;;;;3.37;3.17;;;18.00;99.90;;;;;;4897865;29;20471;-79
2021/04/29 11:49:59;;;;;;;2.57;2.37;;;18.00;99.90;;;;;;4894600;29;20859;-78
2021/04/29 11:52:28;;;;;;;3.40;2.17;;;17.90;99.90;;;;;;4914141;29;20595;-82
2021/04/29 11:54:55;;;;;;;4.57;3.00;;;17.80;99.80;;;;;;4905863;29;20464;-80
2021/04/29 11:57:22;;;;;;;5.27;3.23;;;17.80;98.30;;;;;;4900291;29;21024;-80
2021/04/29 11:59:51;;;;;;;4.80;3.13;;;17.70;96.70;;;;;;4894174;29;20564;-80
2021/04/29 12:02:20;;;;;;;2.97;2.77;;;17.70;95.00;;;;;;4904317;29;20495;-79
2021/04/29 12:04:49;;;;;;;2.50;2.30;;;17.70;96.00;;;;;;4903892;29;20842;-80
2021/04/29 12:07:16;;;;;;;2.83;2.63;;;17.70;95.60;;;;;;4900332;29;20548;-79
2021/04/29 12:09:44;;;;;;;4.50;2.63;;;17.70;97.00;;;;;;4903662;29;20496;-79
2021/04/29 12:12:16;;;;;;;5.23;2.63;;;17.70;95.90;;;;;;4905401;29;20458;-82
2021/04/29 12:14:52;;;;;;;2.77;2.57;;;17.80;95.90;;;;;;4907344;29;20466;-80
2021/04/29 12:17:20;;;;;;;4.90;2.60;;;17.80;94.60;;;;;;4903424;29;20459;-81
2021/04/29 12:19:49;;;;;;;2.97;2.67;;;17.80;94.00;;;;;;4907556;29;20545;-80
2021/04/29 12:22:20;;;;;;;2.63;2.43;;;17.60;92.40;;;;;;4906158;29;20502;-81
2021/04/29 12:24:52;;;;;;;2.37;2.17;;;17.50;92.90;;;;;;4904612;29;20517;-81
2021/04/29 12:27:20;;;;;;;2.93;2.30;;;17.60;93.00;;;;;;4905998;29;20840;-79
2021/04/29 12:30:00;;;;;;;5.10;2.37;;;17.50;92.50;;;;;;4903460;29;20486;-80
2021/04/29 12:32:35;;;;;;;2.83;2.23;;;17.50;91.80;;;;;;4921031;29;20467;-79
2021/04/29 12:35:05;;;;;;;3.30;2.63;;;17.30;90.70;;;;;;4904925;29;20501;-80
2021/04/29 12:37:32;;;;;;;2.43;2.20;;;17.20;90.00;;;;;;4910300;29;21601;-79
2021/04/29 12:39:59;;;;;;;3.40;2.23;;;17.10;90.60;;;;;;4899223;29;20591;-80
2021/04/29 12:42:27;;;;;;;10.47;2.83;;;17.10;92.40;;;;;;4903222;29;20489;-78
2021/04/29 12:44:58;;;;;;;2.20;2.10;;;17.20;93.70;;;;;;4908137;29;20466;-78
2021/04/29 12:47:27;;;;;;;3.60;2.87;;;17.30;97.60;;;;;;4908294;29;20540;-77
2021/04/29 12:50:00;;;;;;;4.80;2.70;;;17.30;98.30;;;;;;4905214;29;21084;-78
2021/04/29 12:52:27;;;;;;;2.80;2.57;;;17.30;99.50;;;;;;4892930;29;20850;-77
2021/04/29 12:54:56;;;;;;;2.73;2.53;;;17.30;99.90;;;;;;4904194;29;20466;-79
2021/04/29 12:57:25;;;;;;;3.70;3.40;;;17.20;99.90;;;;;;4904188;29;21042;-78